createdAt,value
2023-03-02T00:01:57.806Z,15.77
2023-03-02T00:04:37.994Z,15.67
2023-03-02T00:07:09.081Z,15.93
2023-03-02T00:09:36.946Z,15.57
2023-03-02T00:12:04.941Z,16.60
2023-03-02T00:14:31.904Z,16.17
2023-03-02T00:16:58.838Z,15.63
2023-03-02T00:19:25.701Z,16.00
2023-03-02T00:21:52.538Z,15.47
2023-03-02T00:24:19.327Z,14.97
2023-03-02T00:26:46.134Z,15.37
2023-03-02T00:29:12.967Z,15.93
2023-03-02T00:31:39.825Z,15.53
2023-03-02T00:34:06.700Z,15.90
2023-03-02T00:36:33.555Z,15.47
2023-03-02T00:39:00.437Z,15.43
2023-03-02T00:41:27.493Z,15.47
2023-03-02T00:43:54.389Z,15.23
2023-03-02T00:46:24.140Z,15.53
2023-03-02T00:48:51.847Z,14.53
2023-03-02T00:51:19.061Z,15.03
2023-03-02T00:53:46.295Z,14.63
2023-03-02T00:56:13.239Z,15.93
2023-03-02T00:58:40.524Z,14.77
2023-03-02T01:01:11.327Z,15.33
2023-03-02T01:03:38.642Z,15.00
2023-03-02T01:06:06.507Z,15.47
2023-03-02T01:08:33.307Z,14.20
2023-03-02T01:11:01.486Z,15.57
2023-03-02T01:13:29.089Z,14.87
2023-03-02T01:16:03.475Z,14.67
2023-03-02T01:18:30.360Z,14.57
2023-03-02T01:21:06.842Z,14.23
2023-03-02T01:23:33.763Z,15.87
2023-03-02T01:26:00.813Z,13.93
2023-03-02T01:28:27.995Z,15.70
2023-03-02T01:30:54.841Z,15.03
2023-03-02T01:33:22.170Z,15.10
2023-03-02T01:35:49.378Z,14.97
2023-03-02T01:38:16.310Z,15.50
2023-03-02T01:40:43.188Z,14.23
2023-03-02T01:43:16.499Z,14.40
2023-03-02T01:46:03.617Z,15.33
2023-03-02T01:48:44.109Z,14.93
2023-03-02T01:51:15.783Z,14.37
2023-03-02T01:53:46.726Z,15.23
2023-03-02T01:56:21.407Z,14.47
2023-03-02T01:58:52.992Z,14.50
2023-03-02T02:01:20.244Z,14.70
2023-03-02T02:03:50.825Z,15.47
2023-03-02T02:06:33.416Z,15.30
2023-03-02T02:09:02.393Z,14.63
2023-03-02T02:11:29.218Z,15.83
2023-03-02T02:14:01.168Z,14.37
2023-03-02T02:16:32.512Z,14.57
2023-03-02T02:19:01.660Z,13.87
2023-03-02T02:21:29.500Z,14.13
2023-03-02T02:24:02.244Z,14.50
2023-03-02T02:26:50.224Z,14.20
2023-03-02T02:29:35.149Z,14.17
2023-03-02T02:32:18.429Z,13.87
2023-03-02T02:34:52.112Z,14.17
2023-03-02T02:37:46.560Z,14.50
2023-03-02T02:40:22.372Z,13.33
2023-03-02T02:42:51.976Z,14.57
2023-03-02T02:45:26.047Z,14.03
2023-03-02T02:47:55.170Z,14.77
2023-03-02T02:50:31.239Z,14.03
2023-03-02T02:53:05.978Z,14.00
2023-03-02T02:55:34.874Z,14.17
2023-03-02T02:58:09.907Z,13.47
2023-03-02T03:00:38.107Z,14.80
2023-03-02T03:03:29.102Z,14.90
2023-03-02T03:05:58.581Z,15.17
2023-03-02T03:08:43.651Z,14.70
2023-03-02T03:11:23.261Z,14.63
2023-03-02T03:14:06.003Z,14.40
2023-03-02T03:16:35.073Z,13.73
2023-03-02T03:19:32.068Z,14.37
2023-03-02T03:22:02.090Z,13.60
2023-03-02T03:24:31.866Z,14.87
2023-03-02T03:26:59.641Z,15.93
2023-03-02T03:29:29.115Z,14.97
2023-03-02T03:31:58.618Z,14.77
2023-03-02T03:34:27.070Z,14.80
2023-03-02T03:36:54.480Z,15.10
2023-03-02T03:39:21.526Z,14.97
2023-03-02T03:41:48.380Z,14.17
2023-03-02T03:44:15.209Z,14.07
2023-03-02T03:46:41.990Z,14.00
2023-03-02T03:49:08.837Z,14.20
2023-03-02T03:51:35.812Z,14.63
2023-03-02T03:54:08.032Z,13.20
2023-03-02T03:56:39.229Z,13.77
2023-03-02T03:59:09.697Z,13.57
2023-03-02T04:01:47.958Z,14.60
2023-03-02T04:04:23.745Z,14.27
2023-03-02T04:06:51.381Z,13.40
2023-03-02T04:09:18.285Z,13.30
2023-03-02T04:11:48.831Z,13.60
2023-03-02T04:14:16.644Z,14.70
2023-03-02T04:16:44.271Z,14.00
2023-03-02T04:19:13.017Z,13.57
2023-03-02T04:21:45.830Z,13.53
2023-03-02T04:24:14.474Z,12.97
2023-03-02T04:26:42.869Z,13.43
2023-03-02T04:29:10.846Z,12.63
2023-03-02T04:31:38.613Z,13.80
2023-03-02T04:34:06.747Z,13.07
2023-03-02T04:36:36.716Z,13.23
2023-03-02T04:39:05.366Z,13.17
2023-03-02T04:41:32.219Z,13.00
2023-03-02T04:43:59.077Z,13.93
2023-03-02T04:46:27.919Z,13.70
2023-03-02T04:48:55.192Z,13.80
2023-03-02T04:51:32.484Z,13.37
2023-03-02T04:54:03.113Z,13.73
2023-03-02T04:56:30.214Z,13.90
2023-03-02T04:58:57.775Z,12.70
2023-03-02T05:01:25.480Z,13.43
2023-03-02T05:03:52.752Z,13.43
2023-03-02T05:06:21.706Z,13.23
2023-03-02T05:08:48.682Z,12.90
2023-03-02T05:11:22.031Z,13.57
2023-03-02T05:13:52.301Z,13.30
2023-03-02T05:16:20.652Z,12.90
2023-03-02T05:18:47.946Z,13.50
2023-03-02T05:21:16.784Z,13.73
2023-03-02T05:23:43.983Z,12.87
2023-03-02T05:26:11.233Z,14.33
2023-03-02T05:28:39.151Z,13.77
2023-03-02T05:31:06.715Z,13.77
2023-03-02T05:33:34.197Z,13.93
2023-03-02T05:36:01.508Z,13.53
2023-03-02T05:38:31.414Z,13.00
2023-03-02T05:40:58.367Z,13.70
2023-03-02T05:43:25.313Z,13.67
2023-03-02T05:45:52.200Z,14.10
2023-03-02T05:48:19.119Z,13.80
2023-03-02T05:50:46.082Z,13.43
2023-03-02T05:53:13.991Z,13.50
2023-03-02T05:55:40.820Z,13.90
2023-03-02T05:58:16.298Z,14.03
2023-03-02T06:00:44.514Z,13.77
2023-03-02T06:03:11.385Z,13.50
2023-03-02T06:05:39.023Z,13.60
2023-03-02T06:08:06.925Z,13.27
2023-03-02T06:10:34.683Z,13.83
2023-03-02T06:13:01.547Z,14.10
2023-03-02T06:15:29.639Z,14.13
2023-03-02T06:17:57.822Z,13.53
2023-03-02T06:20:24.833Z,13.13
2023-03-02T06:22:51.889Z,12.73
2023-03-02T06:25:22.866Z,13.57
2023-03-02T06:27:53.936Z,13.53
2023-03-02T06:30:25.426Z,14.60
2023-03-02T06:32:52.522Z,12.93
2023-03-02T06:35:19.859Z,13.63
2023-03-02T06:37:46.944Z,13.87
2023-03-02T06:40:14.391Z,12.70
2023-03-02T06:42:42.764Z,13.03
2023-03-02T06:45:10.804Z,13.03
2023-03-02T06:47:37.760Z,12.93
2023-03-02T06:50:05.933Z,12.43
2023-03-02T06:52:33.176Z,12.17
2023-03-02T06:55:00.001Z,13.77
2023-03-02T06:57:33.551Z,13.60
2023-03-02T07:00:09.496Z,13.03
2023-03-02T07:02:37.374Z,12.63
2023-03-02T07:05:05.959Z,12.63
2023-03-02T07:07:32.796Z,12.83
2023-03-02T07:09:59.697Z,12.40
2023-03-02T07:12:26.934Z,11.97
2023-03-02T07:14:53.834Z,11.67
2023-03-02T07:17:20.723Z,12.00
2023-03-02T07:19:47.865Z,12.63
2023-03-02T07:22:14.885Z,11.53
2023-03-02T07:24:43.490Z,11.63
2023-03-02T07:27:11.604Z,11.00
2023-03-02T07:29:38.409Z,10.93
2023-03-02T07:32:06.910Z,11.17
2023-03-02T07:34:33.869Z,11.00
2023-03-02T07:37:00.777Z,10.73
2023-03-02T07:39:27.596Z,10.03
2023-03-02T07:41:59.267Z,11.23
2023-03-02T07:44:27.113Z,10.50
2023-03-02T07:46:54.308Z,11.23
2023-03-02T07:49:21.225Z,10.20
2023-03-02T07:51:48.129Z,9.77
2023-03-02T07:54:15.116Z,9.83
2023-03-02T07:56:42.029Z,10.20
2023-03-02T07:59:08.819Z,10.77
2023-03-02T08:01:35.955Z,10.73
2023-03-02T08:04:02.892Z,10.00
2023-03-02T08:06:29.754Z,10.20
2023-03-02T08:08:57.491Z,10.77
2023-03-02T08:11:24.351Z,10.03
2023-03-02T08:13:51.243Z,11.03
2023-03-02T08:16:18.126Z,10.10
2023-03-02T08:18:45.014Z,10.07
2023-03-02T08:21:15.474Z,9.93
2023-03-02T08:23:43.558Z,10.53
2023-03-02T08:26:13.469Z,9.77
2023-03-02T08:28:44.579Z,9.63
2023-03-02T08:31:15.885Z,9.90
2023-03-02T08:33:42.996Z,12.47
2023-03-02T08:36:15.331Z,10.37
2023-03-02T08:38:42.655Z,12.30
2023-03-02T08:41:15.092Z,17.13
2023-03-02T08:43:42.608Z,14.10
2023-03-02T08:46:12.130Z,10.20
2023-03-02T08:48:39.133Z,15.77
2023-03-02T08:51:10.338Z,13.20
2023-03-02T08:53:41.041Z,13.07
2023-03-02T08:56:19.409Z,10.30
2023-03-02T08:58:50.285Z,19.40
2023-03-02T09:01:24.704Z,11.13
2023-03-02T09:03:52.388Z,11.57
2023-03-02T09:06:19.423Z,10.57
2023-03-02T09:08:47.051Z,10.50
2023-03-02T09:11:13.925Z,10.50
2023-03-02T09:13:40.869Z,11.07
2023-03-02T09:16:08.737Z,10.57
2023-03-02T09:18:36.588Z,11.10
2023-03-02T09:21:04.081Z,11.30
2023-03-02T09:23:32.373Z,11.60
2023-03-02T09:25:59.669Z,10.83
2023-03-02T09:28:26.558Z,12.23
2023-03-02T09:30:57.460Z,11.67
2023-03-02T09:33:24.883Z,11.50
2023-03-02T09:35:51.771Z,11.70
2023-03-02T09:38:19.584Z,11.83
2023-03-02T09:40:49.424Z,12.73
2023-03-02T09:43:53.301Z,13.53
2023-03-02T09:46:23.720Z,12.37
2023-03-02T09:49:03.229Z,11.33
2023-03-02T09:51:45.667Z,12.57
2023-03-02T09:54:21.353Z,11.87
2023-03-02T09:56:54.432Z,12.53
2023-03-02T09:59:38.578Z,11.50
2023-03-02T10:02:35.503Z,11.13
2023-03-02T10:05:08.755Z,12.20
2023-03-02T10:07:38.476Z,12.10
2023-03-02T10:10:41.595Z,11.33
2023-03-02T10:13:42.302Z,11.87
2023-03-02T10:16:31.286Z,11.27
2023-03-02T10:19:25.277Z,11.13
2023-03-02T10:22:04.735Z,11.43
2023-03-02T10:25:10.076Z,11.57
2023-03-02T10:27:43.946Z,11.13
2023-03-02T10:30:30.812Z,10.93
2023-03-02T10:33:03.412Z,11.43
2023-03-02T10:35:31.988Z,11.83
2023-03-02T10:38:12.049Z,16.60
2023-03-02T10:40:59.757Z,17.00
2023-03-02T10:43:37.360Z,21.73
2023-03-02T10:46:10.444Z,26.87
2023-03-02T10:48:59.573Z,12.83
2023-03-02T10:51:29.768Z,12.63
2023-03-02T10:54:10.952Z,11.53
2023-03-02T10:56:38.771Z,12.10
2023-03-02T10:59:46.302Z,11.67
2023-03-02T11:02:17.443Z,10.47
2023-03-02T11:04:44.987Z,10.47
2023-03-02T11:07:21.559Z,10.77
2023-03-02T11:10:17.005Z,10.70
2023-03-02T11:12:48.940Z,9.53
2023-03-02T11:15:32.131Z,9.40
2023-03-02T11:18:24.788Z,10.43
2023-03-02T11:21:01.397Z,9.50
2023-03-02T11:23:56.692Z,9.83
2023-03-02T11:26:30.525Z,9.60
2023-03-02T11:29:20.932Z,9.87
2023-03-02T11:31:54.006Z,9.40
2023-03-02T11:34:39.511Z,9.03
2023-03-02T11:37:15.915Z,9.03
2023-03-02T11:39:56.272Z,9.50
2023-03-02T11:42:37.651Z,8.17
2023-03-02T11:45:22.110Z,8.77
2023-03-02T11:48:09.129Z,7.80
2023-03-02T11:50:57.929Z,8.03
2023-03-02T11:53:33.899Z,7.30
2023-03-02T11:56:00.911Z,7.13
2023-03-02T11:58:29.943Z,7.13
2023-03-02T12:00:57.961Z,6.93
2023-03-02T12:03:30.893Z,7.27
2023-03-02T12:06:14.566Z,7.17
2023-03-02T12:08:47.371Z,6.90
2023-03-02T12:11:17.265Z,7.60
2023-03-02T12:13:57.351Z,7.27
2023-03-02T12:16:38.946Z,6.17
2023-03-02T12:19:18.038Z,6.70
2023-03-02T12:22:09.765Z,6.70
2023-03-02T12:24:40.033Z,6.77
2023-03-02T12:27:26.741Z,6.10
2023-03-02T12:30:24.657Z,6.60
2023-03-02T12:33:10.246Z,5.53
2023-03-02T12:35:38.616Z,5.90
2023-03-02T12:38:39.551Z,6.30
2023-03-02T12:41:38.992Z,6.77
2023-03-02T12:44:35.486Z,6.07
2023-03-02T12:47:04.021Z,6.17
2023-03-02T12:49:57.073Z,6.40
2023-03-02T12:52:36.036Z,6.20
2023-03-02T12:55:19.443Z,6.43
2023-03-02T12:58:03.981Z,6.77
2023-03-02T13:00:35.010Z,6.73
2023-03-02T13:03:03.342Z,6.00
2023-03-02T13:05:33.702Z,6.00
2023-03-02T13:08:13.828Z,6.50
2023-03-02T13:10:52.508Z,5.97
2023-03-02T13:13:34.093Z,6.47
2023-03-02T13:16:05.670Z,6.67
2023-03-02T13:18:39.385Z,6.87
2023-03-02T13:21:07.029Z,5.93
2023-03-02T13:23:34.841Z,6.23
2023-03-02T13:26:05.477Z,6.10
2023-03-02T13:28:36.638Z,6.70
2023-03-02T13:31:20.673Z,6.83
2023-03-02T13:33:53.114Z,5.77
2023-03-02T13:36:29.075Z,6.97
2023-03-02T13:38:59.453Z,6.77
2023-03-02T13:41:32.636Z,6.70
2023-03-02T13:44:12.430Z,6.27
2023-03-02T13:46:41.962Z,6.50
2023-03-02T13:49:11.319Z,6.63
2023-03-02T13:51:44.419Z,6.40
2023-03-02T13:54:22.935Z,6.07
2023-03-02T13:56:52.367Z,6.37
2023-03-02T13:59:21.560Z,6.67
2023-03-02T14:01:48.572Z,6.57
2023-03-02T14:04:18.551Z,6.30
2023-03-02T14:06:46.018Z,6.63
2023-03-02T14:09:13.525Z,5.73
2023-03-02T14:11:44.577Z,10.30
2023-03-02T14:14:17.231Z,10.00
2023-03-02T14:16:44.072Z,9.43
2023-03-02T14:19:16.311Z,18.90
2023-03-02T14:21:43.431Z,17.77
2023-03-02T14:24:10.579Z,14.33
2023-03-02T14:26:44.234Z,7.03
2023-03-02T14:29:28.886Z,6.67
2023-03-02T14:32:00.135Z,12.23
2023-03-02T14:34:27.028Z,6.87
2023-03-02T14:36:56.810Z,7.60
2023-03-02T14:39:33.637Z,5.80
2023-03-02T14:42:00.645Z,5.97
2023-03-02T14:44:27.678Z,5.40
2023-03-02T14:46:54.587Z,5.93
2023-03-02T14:49:21.813Z,5.13
2023-03-02T14:52:03.605Z,5.53
2023-03-02T14:54:43.757Z,5.50
2023-03-02T14:57:19.346Z,5.70
2023-03-02T14:59:46.635Z,4.90
2023-03-02T15:02:24.803Z,5.30
2023-03-02T15:04:56.114Z,5.57
2023-03-02T15:07:24.958Z,6.00
2023-03-02T15:09:51.850Z,6.57
2023-03-02T15:12:18.684Z,5.37
2023-03-02T15:14:45.506Z,5.80
2023-03-02T15:17:12.386Z,7.30
2023-03-02T15:19:39.282Z,5.83
2023-03-02T15:22:06.116Z,5.30
2023-03-02T15:24:33.599Z,5.37
2023-03-02T15:27:00.924Z,5.07
2023-03-02T15:29:27.947Z,5.10
2023-03-02T15:31:54.851Z,5.30
2023-03-02T15:34:21.785Z,5.55
2023-03-02T15:36:49.139Z,5.32
2023-03-02T15:39:16.720Z,5.47
2023-03-02T15:41:43.769Z,6.20
2023-03-02T15:44:21.887Z,5.50
2023-03-02T15:46:51.670Z,5.77
2023-03-02T15:49:22.762Z,5.70
2023-03-02T15:51:51.967Z,5.80
2023-03-02T15:54:19.354Z,5.97
2023-03-02T15:56:52.139Z,5.43
2023-03-02T15:59:30.858Z,4.97
2023-03-02T16:01:59.539Z,5.33
2023-03-02T16:04:28.299Z,5.63
2023-03-02T16:06:56.350Z,5.00
2023-03-02T16:09:24.991Z,5.67
2023-03-02T16:11:52.330Z,5.70
2023-03-02T16:14:19.339Z,5.73
2023-03-02T16:16:46.620Z,5.13
2023-03-02T16:19:18.879Z,5.40
2023-03-02T16:21:47.673Z,5.00
2023-03-02T16:24:16.183Z,5.20
2023-03-02T16:26:43.348Z,6.10
2023-03-02T16:29:12.681Z,5.17
2023-03-02T16:31:40.438Z,5.37
2023-03-02T16:34:09.054Z,5.63
2023-03-02T16:36:41.007Z,5.47
2023-03-02T16:39:10.130Z,5.93
2023-03-02T16:41:42.411Z,5.33
2023-03-02T16:44:12.342Z,6.10
2023-03-02T16:46:40.045Z,6.03
2023-03-02T16:49:07.040Z,5.47
2023-03-02T16:51:34.152Z,6.03
2023-03-02T16:54:01.911Z,6.93
2023-03-02T16:56:28.831Z,5.60
2023-03-02T16:58:55.893Z,5.60
2023-03-02T17:01:24.016Z,5.40
2023-03-02T17:03:51.822Z,5.60
2023-03-02T17:06:23.038Z,4.63
2023-03-02T17:08:50.820Z,5.40
2023-03-02T17:11:18.693Z,5.40
2023-03-02T17:13:45.928Z,4.80
2023-03-02T17:16:13.197Z,5.03
2023-03-02T17:18:41.016Z,5.27
2023-03-02T17:21:08.516Z,5.23
2023-03-02T17:23:36.866Z,6.03
2023-03-02T17:26:04.110Z,10.77
2023-03-02T17:28:31.273Z,11.37
2023-03-02T17:30:59.451Z,13.77
2023-03-02T17:33:26.695Z,23.67
2023-03-02T17:35:53.558Z,23.27
2023-03-02T17:38:20.469Z,22.40
2023-03-02T17:40:47.327Z,25.50
2023-03-02T17:43:15.288Z,22.97
2023-03-02T17:45:42.199Z,23.60
2023-03-02T17:48:09.176Z,25.43
2023-03-02T17:50:36.293Z,26.13
2023-03-02T17:53:03.489Z,25.10
2023-03-02T17:55:30.439Z,25.03
2023-03-02T17:57:57.377Z,26.27
2023-03-02T18:00:24.822Z,26.27
2023-03-02T18:02:53.090Z,26.37
2023-03-02T18:05:20.773Z,26.87
2023-03-02T18:07:47.621Z,30.23
2023-03-02T18:10:14.689Z,29.53
2023-03-02T18:12:41.619Z,27.40
2023-03-02T18:15:09.474Z,33.07
2023-03-02T18:17:36.270Z,40.37
2023-03-02T18:20:04.247Z,27.73
2023-03-02T18:22:31.140Z,31.33
2023-03-02T18:24:58.000Z,32.40
2023-03-02T18:27:24.908Z,27.87
2023-03-02T18:29:51.728Z,28.47
2023-03-02T18:32:18.618Z,29.70
2023-03-02T18:34:45.511Z,28.00
2023-03-02T18:37:12.345Z,26.70
2023-03-02T18:39:39.316Z,27.97
2023-03-02T18:42:07.566Z,28.33
2023-03-02T18:44:34.717Z,36.43
2023-03-02T18:47:02.184Z,39.47
2023-03-02T18:49:29.154Z,36.43
2023-03-02T18:51:56.657Z,30.67
2023-03-02T18:54:24.433Z,30.03
2023-03-02T18:56:51.752Z,27.53
2023-03-02T18:59:20.012Z,28.00
2023-03-02T19:01:47.110Z,30.00
2023-03-02T19:04:15.191Z,29.23
2023-03-02T19:06:43.269Z,26.80
2023-03-02T19:09:11.308Z,27.17
2023-03-02T19:11:38.441Z,28.30
2023-03-02T19:14:05.557Z,28.20
2023-03-02T19:16:33.125Z,26.90
2023-03-02T19:19:00.048Z,27.93
2023-03-02T19:21:27.055Z,26.70
2023-03-02T19:23:54.383Z,27.47
2023-03-02T19:26:21.252Z,27.87
2023-03-02T19:28:54.899Z,27.67
2023-03-02T19:31:22.058Z,28.07
2023-03-02T19:33:49.136Z,28.23
2023-03-02T19:36:16.103Z,26.87
2023-03-02T19:38:44.368Z,28.17
2023-03-02T19:41:15.551Z,28.90
2023-03-02T19:43:45.443Z,27.10
2023-03-02T19:46:14.844Z,27.67
2023-03-02T19:48:42.804Z,29.37
2023-03-02T19:51:11.129Z,27.07
2023-03-02T19:53:39.079Z,29.53
2023-03-02T19:56:12.674Z,27.80
2023-03-02T19:58:47.228Z,27.90
2023-03-02T20:01:21.277Z,26.37
2023-03-02T20:03:51.665Z,27.07
2023-03-02T20:06:20.951Z,26.77
2023-03-02T20:08:48.069Z,27.53
2023-03-02T20:11:15.980Z,27.97
2023-03-02T20:13:43.002Z,27.27
2023-03-02T20:16:12.818Z,28.10
2023-03-02T20:18:41.424Z,28.13
2023-03-02T20:21:08.597Z,27.90
2023-03-02T20:23:35.626Z,28.47
2023-03-02T20:26:04.181Z,28.60
2023-03-02T20:28:33.009Z,28.67
2023-03-02T20:31:08.697Z,29.27
2023-03-02T20:33:43.883Z,29.30
2023-03-02T20:36:13.893Z,33.57
2023-03-02T20:38:51.378Z,29.77
2023-03-02T20:41:18.659Z,29.27
2023-03-02T20:43:45.849Z,29.07
2023-03-02T20:46:21.903Z,27.93
2023-03-02T20:48:50.231Z,28.67
2023-03-02T20:51:17.383Z,28.47
2023-03-02T20:53:46.917Z,28.73
2023-03-02T20:56:18.550Z,28.23
2023-03-02T20:58:47.321Z,28.27
2023-03-02T21:01:16.497Z,28.40
2023-03-02T21:03:44.760Z,26.13
2023-03-02T21:06:13.677Z,28.40
2023-03-02T21:08:41.020Z,27.20
2023-03-02T21:11:11.456Z,28.13
2023-03-02T21:13:39.191Z,28.80
2023-03-02T21:16:08.512Z,27.57
2023-03-02T21:18:35.737Z,26.33
2023-03-02T21:21:03.863Z,27.03
2023-03-02T21:23:30.659Z,26.13
2023-03-02T21:25:57.699Z,25.63
2023-03-02T21:28:24.664Z,27.10
2023-03-02T21:30:51.544Z,26.67
2023-03-02T21:33:18.562Z,28.00
2023-03-02T21:35:46.466Z,27.03
2023-03-02T21:38:14.622Z,28.47
2023-03-02T21:40:45.889Z,26.93
2023-03-02T21:43:14.595Z,27.47
2023-03-02T21:45:41.840Z,28.00
2023-03-02T21:48:09.158Z,26.50
2023-03-02T21:50:38.388Z,27.47
2023-03-02T21:53:05.799Z,28.33
2023-03-02T21:55:34.328Z,27.37
2023-03-02T21:58:01.687Z,26.80
2023-03-02T22:00:35.916Z,26.53
2023-03-02T22:03:03.412Z,27.83
2023-03-02T22:05:32.397Z,27.33
2023-03-02T22:07:59.906Z,28.13
2023-03-02T22:10:43.628Z,28.43
2023-03-02T22:13:13.430Z,29.57
2023-03-02T22:15:40.778Z,28.70
2023-03-02T22:18:33.826Z,27.17
2023-03-02T22:21:01.899Z,26.33
2023-03-02T22:23:28.782Z,26.73
2023-03-02T22:26:12.654Z,29.80
2023-03-02T22:28:41.080Z,28.53
2023-03-02T22:31:21.929Z,31.50
2023-03-02T22:33:49.875Z,29.53
2023-03-02T22:36:22.659Z,30.20
2023-03-02T22:38:50.263Z,29.57
2023-03-02T22:41:19.966Z,29.40
2023-03-02T22:43:47.243Z,29.73
2023-03-02T22:46:18.683Z,30.07
2023-03-02T22:48:48.648Z,30.20
2023-03-02T22:51:19.978Z,30.30
2023-03-02T22:53:51.294Z,29.67
2023-03-02T22:56:30.442Z,29.80
2023-03-02T22:59:08.480Z,30.30
2023-03-02T23:01:44.556Z,30.30
2023-03-02T23:04:35.671Z,28.87
2023-03-02T23:07:12.684Z,29.93
2023-03-02T23:09:39.521Z,29.73
2023-03-02T23:12:22.292Z,29.23
2023-03-02T23:14:57.940Z,30.47
2023-03-02T23:17:36.984Z,30.47
2023-03-02T23:20:07.884Z,27.83
2023-03-02T23:22:36.220Z,30.67
2023-03-02T23:25:03.634Z,29.00
2023-03-02T23:27:30.654Z,30.50
2023-03-02T23:29:57.463Z,29.27
2023-03-02T23:32:24.554Z,28.67
2023-03-02T23:34:51.533Z,30.97
2023-03-02T23:37:18.339Z,29.37
2023-03-02T23:39:46.141Z,29.23
2023-03-02T23:42:13.183Z,31.63
2023-03-02T23:44:39.996Z,31.57
2023-03-02T23:47:07.356Z,29.93
2023-03-02T23:49:34.249Z,29.27
2023-03-02T23:52:01.059Z,29.37
2023-03-02T23:54:28.010Z,30.03
2023-03-02T23:56:54.944Z,30.53
2023-03-02T23:59:21.841Z,31.37
